Zefira — 9HA2459 — position and weather

sailwx.info

Track history (hours):
 
Tides and Currents Weather Stations Pressure Air Temp Water Temp Dewpoint Dewpoint Depression Visibility Wind Speed Wind Dir Waves Ship Positions

Zefira

Last reported at 2015-Jul-06 00:33 UTC. Time now 2015-Jul-06 01:00 UTC.
Position N 39°38' E 002°22'.

Length 50 m; draft 4.9 m.

Type: Pleasure craft. MMSI: 248663000.

Date/timePositionNaut miles runAvg speedWind from/ knotsBaromVisibWave heightAir tempDewpointWater temp
2015-Jul-06 00:33N 39°38' E 002°22'1010.3
2015-Jul-05 23:32N 39°31' E 002°12'1010.0
2015-Jul-05 22:33N 39°24' E 002°04'1010.0
2015-Jul-05 21:33N 39°16' E 001°55'1010.1
2015-Jul-05 20:33N 39°08' E 001°47'1010.4
2015-Jul-05 19:33N 39°00' E 001°38'10 9.9
2015-Jul-05 18:33N 38°53' E 001°30'8 7.7
2015-Jul-05 17:34N 38°46' E 001°26'0 0.0
2015-Jul-05 16:33N 38°46' E 001°26'0 0.0
2015-Jul-05 15:33N 38°46' E 001°26'0 0.0
2015-Jul-05 14:33N 38°46' E 001°26'0 0.0
2015-Jul-05 13:33N 38°46' E 001°26'0 0.0
2015-Jul-05 12:33N 38°46' E 001°26'0 0.0
2015-Jul-05 11:33N 38°46' E 001°26'0 0.0
2015-Jul-05 10:33N 38°46' E 001°26'0 0.0
2015-Jul-05 09:33N 38°46' E 001°26'0 0.0
2015-Jul-05 08:33N 38°46' E 001°26'0 0.0
2015-Jul-05 07:33N 38°46' E 001°26'0 0.0
2015-Jul-05 06:33N 38°46' E 001°26'0 0.0
2015-Jul-05 05:33N 38°46' E 001°26'0 0.0
2015-Jul-05 04:33N 38°46' E 001°26'0 0.0
2015-Jul-05 03:33N 38°46' E 001°26'0 0.0
2015-Jul-05 02:33N 38°46' E 001°26'0 0.0
2015-Jul-05 01:33N 38°46' E 001°26'0 0.0
2015-Jul-05 00:33N 38°46' E 001°26'0 0.0
2015-Jul-04 23:33N 38°46' E 001°26'0 0.0
2015-Jul-04 22:29N 38°46' E 001°26'0 0.0
2015-Jul-04 21:33N 38°46' E 001°26'0 0.0
2015-Jul-04 20:33N 38°46' E 001°26'0 0.0
2015-Jul-04 19:33N 38°46' E 001°26'0 0.0
2015-Jul-04 18:33N 38°46' E 001°26'0 0.0
2015-Jul-04 17:33N 38°46' E 001°26'0 0.0
2015-Jul-04 16:33N 38°46' E 001°26'0 0.0
2015-Jul-04 15:33N 38°46' E 001°26'0 0.0
2015-Jul-04 14:33N 38°46' E 001°26'0 0.0
2015-Jul-04 13:33N 38°46' E 001°26'0 0.0
2015-Jul-04 12:33N 38°46' E 001°26'0 0.0
2015-Jul-04 11:33N 38°46' E 001°26'0 0.0
2015-Jul-04 10:33N 38°46' E 001°26'0 0.0
2015-Jul-04 09:33N 38°46' E 001°26'0 0.0
2015-Jul-04 08:33N 38°46' E 001°26'9 7.4
2015-Jul-04 07:21N 38°52' E 001°18'0 0.0
2015-Jul-04 06:29N 38°52' E 001°18'0 0.0
2015-Jul-04 05:31N 38°52' E 001°18'0 0.0
2015-Jul-04 00:18N 38°52' E 001°18'0 0.0
2015-Jul-03 23:33N 38°52' E 001°18'0 0.0
2015-Jul-03 22:32N 38°52' E 001°18'0 0.0
2015-Jul-03 21:33N 38°52' E 001°18'0 0.0
2015-Jul-03 20:33N 38°52' E 001°18'0 0.0
2015-Jul-03 19:33N 38°52' E 001°18'0 0.0
2015-Jul-03 18:33N 38°52' E 001°18'0 0.0
2015-Jul-03 17:33N 38°52' E 001°18'0 0.0
2015-Jul-03 16:29N 38°52' E 001°18'1 0.2
2015-Jul-03 10:14N 38°52' E 001°19'0 0.0
2015-Jul-03 09:31N 38°52' E 001°19'0 0.0
2015-Jul-03 08:21N 38°52' E 001°19'0 0.0
2015-Jul-03 07:33N 38°52' E 001°19'0 0.0
2015-Jul-03 05:33N 38°52' E 001°19'0 0.0
2015-Jul-03 02:32N 38°52' E 001°19'0 0.0
2015-Jul-03 01:17N 38°52' E 001°19'0 0.0
2015-Jul-03 00:26N 38°52' E 001°19'0 0.0
2015-Jul-02 23:28N 38°52' E 001°19'0 0.0
2015-Jul-02 21:05N 38°52' E 001°19'0 0.0
2015-Jul-02 20:33N 38°52' E 001°19'0 0.0
2015-Jul-02 19:28N 38°52' E 001°19'0 0.0
2015-Jul-02 18:33N 38°52' E 001°19'0 0.0
2015-Jul-02 17:19N 38°52' E 001°19'6 7.2
2015-Jul-02 16:33N 38°47' E 001°23'2 2.3
2015-Jul-02 15:32N 38°46' E 001°26'0 0.0
2015-Jul-02 14:26N 38°46' E 001°26'0 0.0
2015-Jul-02 13:23N 38°46' E 001°26'0 0.0
2015-Jul-02 12:32N 38°46' E 001°26'0 0.0
2015-Jul-02 11:33N 38°46' E 001°26'0 0.0
2015-Jul-02 10:33N 38°46' E 001°26'0 0.0
2015-Jul-02 09:33N 38°46' E 001°26'0 0.0
2015-Jul-02 08:33N 38°46' E 001°26'0 0.0
2015-Jul-02 07:33N 38°46' E 001°26'0 0.0
2015-Jul-02 06:33N 38°46' E 001°26'0 0.0
2015-Jul-02 05:33N 38°46' E 001°26'0 0.0
2015-Jul-02 04:33N 38°46' E 001°26'0 0.0
2015-Jul-02 03:33N 38°46' E 001°26'0 0.0
2015-Jul-02 02:33N 38°46' E 001°26'0 0.0
2015-Jul-02 01:33N 38°46' E 001°26'0 0.0
2015-Jul-02 00:33N 38°46' E 001°26'0 0.0
2015-Jul-01 23:33N 38°46' E 001°26'0 0.0
2015-Jul-01 22:33N 38°46' E 001°26'0 0.0
2015-Jul-01 21:33N 38°46' E 001°26'0 0.0
2015-Jul-01 20:33N 38°46' E 001°26'0 0.0
2015-Jul-01 19:33N 38°46' E 001°26'0 0.0
2015-Jul-01 18:33N 38°46' E 001°26'0 0.0
2015-Jul-01 17:33N 38°46' E 001°26'0 0.0
2015-Jul-01 16:33N 38°46' E 001°26'0 0.0
2015-Jul-01 15:33N 38°46' E 001°26'0 0.0
2015-Jul-01 14:33N 38°46' E 001°26'0 0.0
2015-Jul-01 13:33N 38°46' E 001°26'0 0.0
2015-Jul-01 12:33N 38°46' E 001°26'0 0.0
2015-Jul-01 11:33N 38°46' E 001°26'0 0.0
2015-Jul-01 10:33N 38°46' E 001°26'3 2.9
2015-Jul-01 09:33N 38°48' E 001°23'6 6.0
2015-Jul-01 08:32N 38°52' E 001°18'0 0.0
2015-Jul-01 06:33N 38°52' E 001°18'0 0.0
2015-Jul-01 05:33N 38°52' E 001°18'0 0.0
2015-Jul-01 04:33N 38°52' E 001°18'0 0.0
2015-Jul-01 03:32N 38°52' E 001°18'0 0.0
2015-Jul-01 02:27N 38°52' E 001°18'0 0.0
2015-Jul-01 01:33N 38°52' E 001°18'0 0.0
2015-Jul-01 00:26N 38°52' E 001°18'0 0.0
2015-Jun-30 22:33N 38°52' E 001°18'0 0.0
2015-Jun-30 21:13N 38°52' E 001°18'0 0.0
2015-Jun-30 20:33N 38°52' E 001°18'0 0.0
2015-Jun-30 19:30N 38°52' E 001°18'1 1.3
2015-Jun-30 18:33N 38°52' E 001°19'0 0.0
2015-Jun-30 17:31N 38°52' E 001°19'0 0.0
2015-Jun-30 16:33N 38°52' E 001°19'0 0.0
2015-Jun-30 15:33N 38°52' E 001°19'0 0.0
2015-Jun-30 14:33N 38°52' E 001°19'0 0.0
2015-Jun-30 13:33N 38°52' E 001°19'0 0.0
2015-Jun-30 12:33N 38°52' E 001°19'0 0.0
2015-Jun-30 11:29N 38°52' E 001°19'0 0.0
2015-Jun-30 10:31N 38°52' E 001°19'0 0.0
2015-Jun-30 09:24N 38°52' E 001°19'0 0.0
2015-Jun-30 07:22N 38°52' E 001°19'0 0.0
2015-Jun-30 04:17N 38°52' E 001°19'0 0.0
2015-Jun-30 03:33N 38°52' E 001°19'0 0.0
2015-Jun-30 02:30N 38°52' E 001°19'0 0.0
2015-Jun-30 01:32N 38°52' E 001°19'0 0.0
2015-Jun-30 00:26N 38°52' E 001°19'0 0.0
2015-Jun-29 23:28N 38°52' E 001°19'0 0.0
2015-Jun-29 22:31N 38°52' E 001°19'0 0.0
2015-Jun-29 21:33N 38°52' E 001°19'0 0.0
2015-Jun-29 20:33N 38°52' E 001°19'0 0.0
2015-Jun-29 19:33N 38°52' E 001°19'0 0.0
2015-Jun-29 18:29N 38°52' E 001°19'0 0.0
2015-Jun-29 17:30N 38°52' E 001°19'0 0.0
2015-Jun-29 16:27N 38°52' E 001°19'0 0.0
2015-Jun-29 15:32N 38°52' E 001°19'0 0.0
2015-Jun-29 14:32N 38°52' E 001°19'6 6.0
2015-Jun-29 13:33N 38°47' E 001°24'2 1.9
2015-Jun-29 12:33N 38°46' E 001°26'0 0.0
2015-Jun-29 11:33N 38°46' E 001°26'0 0.0
2015-Jun-29 10:33N 38°46' E 001°26'0 0.0
2015-Jun-29 09:33N 38°46' E 001°26'0 0.4
2015-Jun-29 08:33N 38°46' E 001°26'0 0.0
2015-Jun-29 07:33N 38°46' E 001°26'0 0.0
2015-Jun-29 06:33N 38°46' E 001°26'0 0.0
2015-Jun-29 05:33N 38°46' E 001°26'0 0.0
2015-Jun-29 04:34N 38°46' E 001°26'0 0.0
2015-Jun-29 03:34N 38°46' E 001°26'0 0.0
2015-Jun-29 02:33N 38°46' E 001°26'0 0.0
2015-Jun-29 01:33N 38°46' E 001°26'0 0.0
2015-Jun-29 00:33N 38°46' E 001°26'0 0.0
2015-Jun-28 23:33N 38°46' E 001°26'0 0.0
2015-Jun-28 22:33N 38°46' E 001°26'0 0.0
2015-Jun-28 21:33N 38°46' E 001°26'0 0.0
2015-Jun-28 20:33N 38°46' E 001°26'0 0.0
2015-Jun-28 19:34N 38°46' E 001°26'0 0.0
2015-Jun-28 18:33N 38°46' E 001°26'0 0.0
2015-Jun-28 17:33N 38°46' E 001°26'0 0.0
2015-Jun-28 16:33N 38°46' E 001°26'0 0.0
2015-Jun-28 15:33N 38°46' E 001°26'0 0.0
2015-Jun-28 14:33N 38°46' E 001°26'0 0.0
2015-Jun-28 13:33N 38°46' E 001°26'0 0.0
2015-Jun-28 12:32N 38°46' E 001°26'0 0.0
2015-Jun-28 11:33N 38°46' E 001°26'0 0.0
2015-Jun-28 10:33N 38°46' E 001°26'0 0.0
2015-Jun-28 09:33N 38°46' E 001°26'0 0.0
2015-Jun-28 08:34N 38°46' E 001°26'0 0.0
2015-Jun-28 07:33N 38°46' E 001°26'0 0.0
2015-Jun-28 06:33N 38°46' E 001°26'0 0.0
2015-Jun-28 05:33N 38°46' E 001°26'0 0.0
2015-Jun-28 04:33N 38°46' E 001°26'0 0.0
2015-Jun-28 03:33N 38°46' E 001°26'0 0.0
2015-Jun-28 02:34N 38°46' E 001°26'0 0.0
2015-Jun-28 01:33N 38°46' E 001°26'0 0.0
2015-Jun-28 00:33N 38°46' E 001°26'0 0.0
2015-Jun-27 23:33N 38°46' E 001°26'0 0.0
2015-Jun-27 22:33N 38°46' E 001°26'0 0.0
2015-Jun-27 21:34N 38°46' E 001°26'0 0.0
2015-Jun-27 20:33N 38°46' E 001°26'0 0.0
2015-Jun-27 19:33N 38°46' E 001°26'0 0.0
2015-Jun-27 18:33N 38°46' E 001°26'0 0.0
2015-Jun-27 17:33N 38°46' E 001°26'0 0.0
2015-Jun-27 16:33N 38°46' E 001°26'0 0.0
2015-Jun-27 15:33N 38°46' E 001°26'0 0.0
2015-Jun-27 14:32N 38°46' E 001°26'0 0.0
2015-Jun-27 13:33N 38°46' E 001°26'0 0.0
2015-Jun-27 12:34N 38°46' E 001°26'0 0.0
2015-Jun-27 11:33N 38°46' E 001°26'0 0.2
2015-Jun-27 10:34N 38°46' E 001°26'0 0.0
2015-Jun-27 09:33N 38°46' E 001°26'0 0.0
2015-Jun-27 08:33N 38°46' E 001°26'2 1.5
2015-Jun-27 07:33N 38°47' E 001°24'3 3.3
2015-Jun-27 06:33N 38°44' E 001°27'0 0.0
2015-Jun-27 05:34N 38°44' E 001°27'0 0.0
2015-Jun-27 04:31N 38°44' E 001°27'0 0.0
2015-Jun-27 03:33N 38°44' E 001°27'0 0.0
2015-Jun-27 02:33N 38°44' E 001°27'0 0.0
2015-Jun-27 01:34N 38°44' E 001°27'0 0.0
2015-Jun-27 00:33N 38°44' E 001°27'0 0.0
2015-Jun-26 23:33N 38°44' E 001°27'0 0.0
2015-Jun-26 22:33N 38°44' E 001°27'0 0.0
2015-Jun-26 21:33N 38°44' E 001°27'0 0.0
2015-Jun-26 20:33N 38°44' E 001°27'0 0.0
2015-Jun-26 19:33N 38°44' E 001°27'0 0.0
2015-Jun-26 18:33N 38°44' E 001°27'3 3.1
2015-Jun-26 17:33N 38°47' E 001°25'7 2.1
2015-Jun-26 14:21N 38°52' E 001°19'0 0.0
2015-Jun-26 09:08N 38°52' E 001°19'  
Track history (hours):
 
Tides and Currents Weather Stations Pressure Air Temp Water Temp Dewpoint Dewpoint Depression Visibility Wind Speed Wind Dir Waves Ship Positions

Zefira

Last reported at 2015-Jul-06 00:33 UTC. Time now 2015-Jul-06 01:00 UTC.
Position N 39°38' E 002°22'.

Length 50 m; draft 4.9 m.

Type: Pleasure craft. MMSI: 248663000.

Date/timePositionNaut miles runAvg speedWind from/ knotsBaromVisibWave heightAir tempDewpointWater temp
2015-Jul-06 00:33N 39°38' E 002°22'1010.3
2015-Jul-05 23:32N 39°31' E 002°12'1010.0
2015-Jul-05 22:33N 39°24' E 002°04'1010.0
2015-Jul-05 21:33N 39°16' E 001°55'1010.1
2015-Jul-05 20:33N 39°08' E 001°47'1010.4
2015-Jul-05 19:33N 39°00' E 001°38'10 9.9
2015-Jul-05 18:33N 38°53' E 001°30'8 7.7
2015-Jul-05 17:34N 38°46' E 001°26'0 0.0
2015-Jul-05 16:33N 38°46' E 001°26'0 0.0
2015-Jul-05 15:33N 38°46' E 001°26'0 0.0
2015-Jul-05 14:33N 38°46' E 001°26'0 0.0
2015-Jul-05 13:33N 38°46' E 001°26'0 0.0
2015-Jul-05 12:33N 38°46' E 001°26'0 0.0
2015-Jul-05 11:33N 38°46' E 001°26'0 0.0
2015-Jul-05 10:33N 38°46' E 001°26'0 0.0
2015-Jul-05 09:33N 38°46' E 001°26'0 0.0
2015-Jul-05 08:33N 38°46' E 001°26'0 0.0
2015-Jul-05 07:33N 38°46' E 001°26'0 0.0
2015-Jul-05 06:33N 38°46' E 001°26'0 0.0
2015-Jul-05 05:33N 38°46' E 001°26'0 0.0
2015-Jul-05 04:33N 38°46' E 001°26'0 0.0
2015-Jul-05 03:33N 38°46' E 001°26'0 0.0
2015-Jul-05 02:33N 38°46' E 001°26'0 0.0
2015-Jul-05 01:33N 38°46' E 001°26'0 0.0
2015-Jul-05 00:33N 38°46' E 001°26'0 0.0
2015-Jul-04 23:33N 38°46' E 001°26'0 0.0
2015-Jul-04 22:29N 38°46' E 001°26'0 0.0
2015-Jul-04 21:33N 38°46' E 001°26'0 0.0
2015-Jul-04 20:33N 38°46' E 001°26'0 0.0
2015-Jul-04 19:33N 38°46' E 001°26'0 0.0
2015-Jul-04 18:33N 38°46' E 001°26'0 0.0
2015-Jul-04 17:33N 38°46' E 001°26'0 0.0
2015-Jul-04 16:33N 38°46' E 001°26'0 0.0
2015-Jul-04 15:33N 38°46' E 001°26'0 0.0
2015-Jul-04 14:33N 38°46' E 001°26'0 0.0
2015-Jul-04 13:33N 38°46' E 001°26'0 0.0
2015-Jul-04 12:33N 38°46' E 001°26'0 0.0
2015-Jul-04 11:33N 38°46' E 001°26'0 0.0
2015-Jul-04 10:33N 38°46' E 001°26'0 0.0
2015-Jul-04 09:33N 38°46' E 001°26'0 0.0
2015-Jul-04 08:33N 38°46' E 001°26'9 7.4
2015-Jul-04 07:21N 38°52' E 001°18'0 0.0
2015-Jul-04 06:29N 38°52' E 001°18'0 0.0
2015-Jul-04 05:31N 38°52' E 001°18'0 0.0
2015-Jul-04 00:18N 38°52' E 001°18'0 0.0
2015-Jul-03 23:33N 38°52' E 001°18'0 0.0
2015-Jul-03 22:32N 38°52' E 001°18'0 0.0
2015-Jul-03 21:33N 38°52' E 001°18'0 0.0
2015-Jul-03 20:33N 38°52' E 001°18'0 0.0
2015-Jul-03 19:33N 38°52' E 001°18'0 0.0
2015-Jul-03 18:33N 38°52' E 001°18'0 0.0
2015-Jul-03 17:33N 38°52' E 001°18'0 0.0
2015-Jul-03 16:29N 38°52' E 001°18'1 0.2
2015-Jul-03 10:14N 38°52' E 001°19'0 0.0
2015-Jul-03 09:31N 38°52' E 001°19'0 0.0
2015-Jul-03 08:21N 38°52' E 001°19'0 0.0
2015-Jul-03 07:33N 38°52' E 001°19'0 0.0
2015-Jul-03 05:33N 38°52' E 001°19'0 0.0
2015-Jul-03 02:32N 38°52' E 001°19'0 0.0
2015-Jul-03 01:17N 38°52' E 001°19'0 0.0
2015-Jul-03 00:26N 38°52' E 001°19'0 0.0
2015-Jul-02 23:28N 38°52' E 001°19'0 0.0
2015-Jul-02 21:05N 38°52' E 001°19'0 0.0
2015-Jul-02 20:33N 38°52' E 001°19'0 0.0
2015-Jul-02 19:28N 38°52' E 001°19'0 0.0
2015-Jul-02 18:33N 38°52' E 001°19'0 0.0
2015-Jul-02 17:19N 38°52' E 001°19'6 7.2
2015-Jul-02 16:33N 38°47' E 001°23'2 2.3
2015-Jul-02 15:32N 38°46' E 001°26'0 0.0
2015-Jul-02 14:26N 38°46' E 001°26'0 0.0
2015-Jul-02 13:23N 38°46' E 001°26'0 0.0
2015-Jul-02 12:32N 38°46' E 001°26'0 0.0
2015-Jul-02 11:33N 38°46' E 001°26'0 0.0
2015-Jul-02 10:33N 38°46' E 001°26'0 0.0
2015-Jul-02 09:33N 38°46' E 001°26'0 0.0
2015-Jul-02 08:33N 38°46' E 001°26'0 0.0
2015-Jul-02 07:33N 38°46' E 001°26'0 0.0
2015-Jul-02 06:33N 38°46' E 001°26'0 0.0
2015-Jul-02 05:33N 38°46' E 001°26'0 0.0
2015-Jul-02 04:33N 38°46' E 001°26'0 0.0
2015-Jul-02 03:33N 38°46' E 001°26'0 0.0
2015-Jul-02 02:33N 38°46' E 001°26'0 0.0
2015-Jul-02 01:33N 38°46' E 001°26'0 0.0
2015-Jul-02 00:33N 38°46' E 001°26'0 0.0
2015-Jul-01 23:33N 38°46' E 001°26'0 0.0
2015-Jul-01 22:33N 38°46' E 001°26'0 0.0
2015-Jul-01 21:33N 38°46' E 001°26'0 0.0
2015-Jul-01 20:33N 38°46' E 001°26'0 0.0
2015-Jul-01 19:33N 38°46' E 001°26'0 0.0
2015-Jul-01 18:33N 38°46' E 001°26'0 0.0
2015-Jul-01 17:33N 38°46' E 001°26'0 0.0
2015-Jul-01 16:33N 38°46' E 001°26'0 0.0
2015-Jul-01 15:33N 38°46' E 001°26'0 0.0
2015-Jul-01 14:33N 38°46' E 001°26'0 0.0
2015-Jul-01 13:33N 38°46' E 001°26'0 0.0
2015-Jul-01 12:33N 38°46' E 001°26'0 0.0
2015-Jul-01 11:33N 38°46' E 001°26'0 0.0
2015-Jul-01 10:33N 38°46' E 001°26'3 2.9
2015-Jul-01 09:33N 38°48' E 001°23'6 6.0
2015-Jul-01 08:32N 38°52' E 001°18'0 0.0
2015-Jul-01 06:33N 38°52' E 001°18'0 0.0
2015-Jul-01 05:33N 38°52' E 001°18'0 0.0
2015-Jul-01 04:33N 38°52' E 001°18'0 0.0
2015-Jul-01 03:32N 38°52' E 001°18'0 0.0
2015-Jul-01 02:27N 38°52' E 001°18'0 0.0
2015-Jul-01 01:33N 38°52' E 001°18'0 0.0
2015-Jul-01 00:26N 38°52' E 001°18'0 0.0
2015-Jun-30 22:33N 38°52' E 001°18'0 0.0
2015-Jun-30 21:13N 38°52' E 001°18'0 0.0
2015-Jun-30 20:33N 38°52' E 001°18'0 0.0
2015-Jun-30 19:30N 38°52' E 001°18'1 1.3
2015-Jun-30 18:33N 38°52' E 001°19'0 0.0
2015-Jun-30 17:31N 38°52' E 001°19'0 0.0
2015-Jun-30 16:33N 38°52' E 001°19'0 0.0
2015-Jun-30 15:33N 38°52' E 001°19'0 0.0
2015-Jun-30 14:33N 38°52' E 001°19'0 0.0
2015-Jun-30 13:33N 38°52' E 001°19'0 0.0
2015-Jun-30 12:33N 38°52' E 001°19'0 0.0
2015-Jun-30 11:29N 38°52' E 001°19'0 0.0
2015-Jun-30 10:31N 38°52' E 001°19'0 0.0
2015-Jun-30 09:24N 38°52' E 001°19'0 0.0
2015-Jun-30 07:22N 38°52' E 001°19'0 0.0
2015-Jun-30 04:17N 38°52' E 001°19'0 0.0
2015-Jun-30 03:33N 38°52' E 001°19'0 0.0
2015-Jun-30 02:30N 38°52' E 001°19'0 0.0
2015-Jun-30 01:32N 38°52' E 001°19'0 0.0
2015-Jun-30 00:26N 38°52' E 001°19'0 0.0
2015-Jun-29 23:28N 38°52' E 001°19'0 0.0
2015-Jun-29 22:31N 38°52' E 001°19'0 0.0
2015-Jun-29 21:33N 38°52' E 001°19'0 0.0
2015-Jun-29 20:33N 38°52' E 001°19'0 0.0
2015-Jun-29 19:33N 38°52' E 001°19'0 0.0
2015-Jun-29 18:29N 38°52' E 001°19'0 0.0
2015-Jun-29 17:30N 38°52' E 001°19'0 0.0
2015-Jun-29 16:27N 38°52' E 001°19'0 0.0
2015-Jun-29 15:32N 38°52' E 001°19'0 0.0
2015-Jun-29 14:32N 38°52' E 001°19'6 6.0
2015-Jun-29 13:33N 38°47' E 001°24'2 1.9
2015-Jun-29 12:33N 38°46' E 001°26'0 0.0
2015-Jun-29 11:33N 38°46' E 001°26'0 0.0
2015-Jun-29 10:33N 38°46' E 001°26'0 0.0
2015-Jun-29 09:33N 38°46' E 001°26'0 0.4
2015-Jun-29 08:33N 38°46' E 001°26'0 0.0
2015-Jun-29 07:33N 38°46' E 001°26'0 0.0
2015-Jun-29 06:33N 38°46' E 001°26'0 0.0
2015-Jun-29 05:33N 38°46' E 001°26'0 0.0
2015-Jun-29 04:34N 38°46' E 001°26'0 0.0
2015-Jun-29 03:34N 38°46' E 001°26'0 0.0
2015-Jun-29 02:33N 38°46' E 001°26'0 0.0
2015-Jun-29 01:33N 38°46' E 001°26'0 0.0
2015-Jun-29 00:33N 38°46' E 001°26'0 0.0
2015-Jun-28 23:33N 38°46' E 001°26'0 0.0
2015-Jun-28 22:33N 38°46' E 001°26'0 0.0
2015-Jun-28 21:33N 38°46' E 001°26'0 0.0
2015-Jun-28 20:33N 38°46' E 001°26'0 0.0
2015-Jun-28 19:34N 38°46' E 001°26'0 0.0
2015-Jun-28 18:33N 38°46' E 001°26'0 0.0
2015-Jun-28 17:33N 38°46' E 001°26'0 0.0
2015-Jun-28 16:33N 38°46' E 001°26'0 0.0
2015-Jun-28 15:33N 38°46' E 001°26'0 0.0
2015-Jun-28 14:33N 38°46' E 001°26'0 0.0
2015-Jun-28 13:33N 38°46' E 001°26'0 0.0
2015-Jun-28 12:32N 38°46' E 001°26'0 0.0
2015-Jun-28 11:33N 38°46' E 001°26'0 0.0
2015-Jun-28 10:33N 38°46' E 001°26'0 0.0
2015-Jun-28 09:33N 38°46' E 001°26'0 0.0
2015-Jun-28 08:34N 38°46' E 001°26'0 0.0
2015-Jun-28 07:33N 38°46' E 001°26'0 0.0
2015-Jun-28 06:33N 38°46' E 001°26'0 0.0
2015-Jun-28 05:33N 38°46' E 001°26'0 0.0
2015-Jun-28 04:33N 38°46' E 001°26'0 0.0
2015-Jun-28 03:33N 38°46' E 001°26'0 0.0
2015-Jun-28 02:34N 38°46' E 001°26'0 0.0
2015-Jun-28 01:33N 38°46' E 001°26'0 0.0
2015-Jun-28 00:33N 38°46' E 001°26'0 0.0
2015-Jun-27 23:33N 38°46' E 001°26'0 0.0
2015-Jun-27 22:33N 38°46' E 001°26'0 0.0
2015-Jun-27 21:34N 38°46' E 001°26'0 0.0
2015-Jun-27 20:33N 38°46' E 001°26'0 0.0
2015-Jun-27 19:33N 38°46' E 001°26'0 0.0
2015-Jun-27 18:33N 38°46' E 001°26'0 0.0
2015-Jun-27 17:33N 38°46' E 001°26'0 0.0
2015-Jun-27 16:33N 38°46' E 001°26'0 0.0
2015-Jun-27 15:33N 38°46' E 001°26'0 0.0
2015-Jun-27 14:32N 38°46' E 001°26'0 0.0
2015-Jun-27 13:33N 38°46' E 001°26'0 0.0
2015-Jun-27 12:34N 38°46' E 001°26'0 0.0
2015-Jun-27 11:33N 38°46' E 001°26'0 0.2
2015-Jun-27 10:34N 38°46' E 001°26'0 0.0
2015-Jun-27 09:33N 38°46' E 001°26'0 0.0
2015-Jun-27 08:33N 38°46' E 001°26'2 1.5
2015-Jun-27 07:33N 38°47' E 001°24'3 3.3
2015-Jun-27 06:33N 38°44' E 001°27'0 0.0
2015-Jun-27 05:34N 38°44' E 001°27'0 0.0
2015-Jun-27 04:31N 38°44' E 001°27'0 0.0
2015-Jun-27 03:33N 38°44' E 001°27'0 0.0
2015-Jun-27 02:33N 38°44' E 001°27'0 0.0
2015-Jun-27 01:34N 38°44' E 001°27'0 0.0
2015-Jun-27 00:33N 38°44' E 001°27'0 0.0
2015-Jun-26 23:33N 38°44' E 001°27'0 0.0
2015-Jun-26 22:33N 38°44' E 001°27'0 0.0
2015-Jun-26 21:33N 38°44' E 001°27'0 0.0
2015-Jun-26 20:33N 38°44' E 001°27'0 0.0
2015-Jun-26 19:33N 38°44' E 001°27'0 0.0
2015-Jun-26 18:33N 38°44' E 001°27'3 3.1
2015-Jun-26 17:33N 38°47' E 001°25'7 2.1
2015-Jun-26 14:21N 38°52' E 001°19'0 0.0
2015-Jun-26 09:08N 38°52' E 001°19'  

Dump ship's entire track history